sensor_id;sensor_type;location;lat;lon;timestamp;P1;durP1;ratioP1;P2;durP2;ratioP2
58992;SDS011;44782;0.000;0.000;2023-02-22T00:00:22;15.67;;;14.17;;
58992;SDS011;44782;0.000;0.000;2023-02-22T00:02:43;15.63;;;14.20;;
58992;SDS011;44782;0.000;0.000;2023-02-22T00:05:04;15.27;;;13.87;;
58992;SDS011;44782;0.000;0.000;2023-02-22T00:07:19;15.67;;;14.27;;
58992;SDS011;44782;0.000;0.000;2023-02-22T00:09:35;15.77;;;14.27;;
58992;SDS011;44782;0.000;0.000;2023-02-22T00:11:51;16.00;;;14.60;;
58992;SDS011;44782;0.000;0.000;2023-02-22T00:14:06;14.87;;;13.57;;
58992;SDS011;44782;0.000;0.000;2023-02-22T00:16:23;15.37;;;13.97;;
58992;SDS011;44782;0.000;0.000;2023-02-22T00:18:40;14.63;;;13.33;;
58992;SDS011;44782;0.000;0.000;2023-02-22T00:20:56;15.13;;;13.83;;
58992;SDS011;44782;0.000;0.000;2023-02-22T00:23:19;15.00;;;13.70;;
58992;SDS011;44782;0.000;0.000;2023-02-22T00:25:36;15.57;;;14.13;;
58992;SDS011;44782;0.000;0.000;2023-02-22T00:27:52;15.50;;;14.10;;
58992;SDS011;44782;0.000;0.000;2023-02-22T00:30:09;14.83;;;13.43;;
58992;SDS011;44782;0.000;0.000;2023-02-22T00:32:32;15.70;;;14.30;;
58992;SDS011;44782;0.000;0.000;2023-02-22T00:34:54;14.43;;;13.20;;
58992;SDS011;44782;0.000;0.000;2023-02-22T00:37:10;14.73;;;13.50;;
58992;SDS011;44782;0.000;0.000;2023-02-22T00:39:26;14.97;;;13.63;;
58992;SDS011;44782;0.000;0.000;2023-02-22T00:41:41;15.00;;;13.60;;
58992;SDS011;44782;0.000;0.000;2023-02-22T00:43:57;14.73;;;13.33;;
58992;SDS011;44782;0.000;0.000;2023-02-22T00:46:13;14.30;;;13.03;;
58992;SDS011;44782;0.000;0.000;2023-02-22T00:48:29;14.23;;;12.97;;
58992;SDS011;44782;0.000;0.000;2023-02-22T00:50:44;13.90;;;12.70;;
58992;SDS011;44782;0.000;0.000;2023-02-22T00:53:02;15.40;;;13.90;;
58992;SDS011;44782;0.000;0.000;2023-02-22T00:55:20;14.87;;;13.67;;
58992;SDS011;44782;0.000;0.000;2023-02-22T00:57:41;14.50;;;13.30;;
58992;SDS011;44782;0.000;0.000;2023-02-22T00:59:56;14.03;;;12.80;;
58992;SDS011;44782;0.000;0.000;2023-02-22T01:02:12;15.00;;;13.60;;
58992;SDS011;44782;0.000;0.000;2023-02-22T01:04:28;14.17;;;12.97;;
58992;SDS011;44782;0.000;0.000;2023-02-22T01:06:44;14.60;;;13.13;;
58992;SDS011;44782;0.000;0.000;2023-02-22T01:08:59;14.00;;;12.73;;
58992;SDS011;44782;0.000;0.000;2023-02-22T01:11:16;13.83;;;12.63;;
58992;SDS011;44782;0.000;0.000;2023-02-22T01:13:32;13.70;;;12.50;;
58992;SDS011;44782;0.000;0.000;2023-02-22T01:15:48;13.43;;;12.23;;
58992;SDS011;44782;0.000;0.000;2023-02-22T01:18:04;13.57;;;12.37;;
58992;SDS011;44782;0.000;0.000;2023-02-22T01:20:21;13.33;;;12.13;;
58992;SDS011;44782;0.000;0.000;2023-02-22T01:22:44;13.57;;;12.40;;
58992;SDS011;44782;0.000;0.000;2023-02-22T01:25:02;13.13;;;12.00;;
58992;SDS011;44782;0.000;0.000;2023-02-22T01:27:20;13.57;;;12.37;;
58992;SDS011;44782;0.000;0.000;2023-02-22T01:29:35;13.13;;;12.00;;
58992;SDS011;44782;0.000;0.000;2023-02-22T01:31:54;12.83;;;11.73;;
58992;SDS011;44782;0.000;0.000;2023-02-22T01:34:10;13.20;;;12.07;;
58992;SDS011;44782;0.000;0.000;2023-02-22T01:36:26;13.43;;;12.23;;
58992;SDS011;44782;0.000;0.000;2023-02-22T01:38:42;13.53;;;12.33;;
58992;SDS011;44782;0.000;0.000;2023-02-22T01:40:59;12.83;;;11.70;;
58992;SDS011;44782;0.000;0.000;2023-02-22T01:43:25;13.47;;;12.27;;
58992;SDS011;44782;0.000;0.000;2023-02-22T01:50:49;13.47;;;12.37;;
58992;SDS011;44782;0.000;0.000;2023-02-22T01:53:13;13.53;;;12.33;;
58992;SDS011;44782;0.000;0.000;2023-02-22T01:55:31;12.57;;;11.47;;
58992;SDS011;44782;0.000;0.000;2023-02-22T01:57:48;13.50;;;12.30;;
58992;SDS011;44782;0.000;0.000;2023-02-22T02:00:06;13.40;;;12.20;;
58992;SDS011;44782;0.000;0.000;2023-02-22T02:02:28;12.70;;;11.60;;
58992;SDS011;44782;0.000;0.000;2023-02-22T02:04:44;13.07;;;11.90;;
58992;SDS011;44782;0.000;0.000;2023-02-22T02:07:01;13.03;;;11.90;;
58992;SDS011;44782;0.000;0.000;2023-02-22T02:09:22;13.70;;;12.50;;
58992;SDS011;44782;0.000;0.000;2023-02-22T02:11:44;13.57;;;12.27;;
58992;SDS011;44782;0.000;0.000;2023-02-22T02:14:00;12.37;;;11.27;;
58992;SDS011;44782;0.000;0.000;2023-02-22T02:16:16;13.37;;;12.17;;
58992;SDS011;44782;0.000;0.000;2023-02-22T02:18:32;12.67;;;11.57;;
58992;SDS011;44782;0.000;0.000;2023-02-22T02:29:08;12.83;;;11.73;;
58992;SDS011;44782;0.000;0.000;2023-02-22T02:34:33;13.17;;;11.97;;
58992;SDS011;44782;0.000;0.000;2023-02-22T02:39:27;12.53;;;11.43;;
58992;SDS011;44782;0.000;0.000;2023-02-22T02:41:48;13.33;;;12.13;;
58992;SDS011;44782;0.000;0.000;2023-02-22T02:44:13;12.97;;;11.87;;
58992;SDS011;44782;0.000;0.000;2023-02-22T02:46:46;12.67;;;11.47;;
58992;SDS011;44782;0.000;0.000;2023-02-22T02:49:11;12.40;;;11.30;;
58992;SDS011;44782;0.000;0.000;2023-02-22T02:51:35;12.73;;;11.63;;
58992;SDS011;44782;0.000;0.000;2023-02-22T02:53:55;12.73;;;11.63;;
58992;SDS011;44782;0.000;0.000;2023-02-22T02:56:12;12.40;;;11.30;;
58992;SDS011;44782;0.000;0.000;2023-02-22T02:58:27;12.47;;;11.43;;
58992;SDS011;44782;0.000;0.000;2023-02-22T03:00:43;13.33;;;12.17;;
58992;SDS011;44782;0.000;0.000;2023-02-22T03:03:09;13.47;;;12.37;;
58992;SDS011;44782;0.000;0.000;2023-02-22T03:18:12;13.40;;;12.13;;
58992;SDS011;44782;0.000;0.000;2023-02-22T03:20:51;13.63;;;12.37;;
58992;SDS011;44782;0.000;0.000;2023-02-22T03:25:51;13.87;;;12.50;;
58992;SDS011;44782;0.000;0.000;2023-02-22T03:28:12;13.10;;;11.90;;
58992;SDS011;44782;0.000;0.000;2023-02-22T03:30:36;12.87;;;11.77;;
58992;SDS011;44782;0.000;0.000;2023-02-22T03:32:58;12.50;;;11.40;;
58992;SDS011;44782;0.000;0.000;2023-02-22T03:35:18;13.17;;;12.00;;
58992;SDS011;44782;0.000;0.000;2023-02-22T03:37:42;13.20;;;12.00;;
58992;SDS011;44782;0.000;0.000;2023-02-22T03:40:01;12.93;;;11.83;;
58992;SDS011;44782;0.000;0.000;2023-02-22T03:42:29;13.60;;;12.37;;
58992;SDS011;44782;0.000;0.000;2023-02-22T03:44:48;12.57;;;11.47;;
58992;SDS011;44782;0.000;0.000;2023-02-22T03:47:08;13.20;;;11.97;;
58992;SDS011;44782;0.000;0.000;2023-02-22T03:52:22;12.53;;;11.43;;
58992;SDS011;44782;0.000;0.000;2023-02-22T03:54:38;13.73;;;12.33;;
58992;SDS011;44782;0.000;0.000;2023-02-22T03:56:55;13.50;;;12.27;;
58992;SDS011;44782;0.000;0.000;2023-02-22T03:59:14;13.47;;;12.27;;
58992;SDS011;44782;0.000;0.000;2023-02-22T04:01:30;13.07;;;11.87;;
58992;SDS011;44782;0.000;0.000;2023-02-22T04:03:46;13.27;;;12.07;;
58992;SDS011;44782;0.000;0.000;2023-02-22T04:06:02;13.50;;;12.33;;
58992;SDS011;44782;0.000;0.000;2023-02-22T04:08:17;13.50;;;12.37;;
58992;SDS011;44782;0.000;0.000;2023-02-22T04:10:33;13.53;;;12.30;;
58992;SDS011;44782;0.000;0.000;2023-02-22T04:12:51;13.63;;;12.43;;
58992;SDS011;44782;0.000;0.000;2023-02-22T04:15:07;13.53;;;12.23;;
58992;SDS011;44782;0.000;0.000;2023-02-22T04:17:25;13.47;;;12.27;;
58992;SDS011;44782;0.000;0.000;2023-02-22T04:19:41;13.20;;;12.00;;
58992;SDS011;44782;0.000;0.000;2023-02-22T04:21:59;13.33;;;12.13;;
58992;SDS011;44782;0.000;0.000;2023-02-22T04:24:15;12.73;;;11.63;;
58992;SDS011;44782;0.000;0.000;2023-02-22T04:26:30;13.40;;;12.13;;
58992;SDS011;44782;0.000;0.000;2023-02-22T04:28:46;12.63;;;11.53;;
58992;SDS011;44782;0.000;0.000;2023-02-22T04:31:02;12.97;;;11.77;;
58992;SDS011;44782;0.000;0.000;2023-02-22T04:33:17;12.60;;;11.50;;
58992;SDS011;44782;0.000;0.000;2023-02-22T04:35:33;13.13;;;12.03;;
58992;SDS011;44782;0.000;0.000;2023-02-22T04:37:49;13.20;;;12.10;;
58992;SDS011;44782;0.000;0.000;2023-02-22T04:40:04;12.37;;;11.27;;
58992;SDS011;44782;0.000;0.000;2023-02-22T04:42:24;13.77;;;12.50;;
58992;SDS011;44782;0.000;0.000;2023-02-22T04:44:40;12.93;;;11.73;;
58992;SDS011;44782;0.000;0.000;2023-02-22T04:46:55;13.30;;;12.10;;
58992;SDS011;44782;0.000;0.000;2023-02-22T04:49:11;12.67;;;11.47;;
58992;SDS011;44782;0.000;0.000;2023-02-22T04:51:27;13.63;;;12.47;;
58992;SDS011;44782;0.000;0.000;2023-02-22T04:53:42;13.73;;;12.47;;
58992;SDS011;44782;0.000;0.000;2023-02-22T04:55:58;12.70;;;11.60;;
58992;SDS011;44782;0.000;0.000;2023-02-22T04:58:14;13.37;;;12.20;;
58992;SDS011;44782;0.000;0.000;2023-02-22T05:00:29;12.80;;;11.70;;
58992;SDS011;44782;0.000;0.000;2023-02-22T05:02:45;12.93;;;11.77;;
58992;SDS011;44782;0.000;0.000;2023-02-22T05:05:01;13.37;;;12.17;;
58992;SDS011;44782;0.000;0.000;2023-02-22T05:07:17;12.67;;;11.47;;
58992;SDS011;44782;0.000;0.000;2023-02-22T05:09:32;12.70;;;11.60;;
58992;SDS011;44782;0.000;0.000;2023-02-22T05:11:48;12.40;;;11.30;;
58992;SDS011;44782;0.000;0.000;2023-02-22T05:14:04;12.83;;;11.73;;
58992;SDS011;44782;0.000;0.000;2023-02-22T05:16:19;12.87;;;11.67;;
58992;SDS011;44782;0.000;0.000;2023-02-22T05:18:35;12.97;;;11.87;;
58992;SDS011;44782;0.000;0.000;2023-02-22T05:20:51;12.20;;;11.20;;
58992;SDS011;44782;0.000;0.000;2023-02-22T05:23:06;13.50;;;12.30;;
58992;SDS011;44782;0.000;0.000;2023-02-22T05:25:23;12.87;;;11.77;;
58992;SDS011;44782;0.000;0.000;2023-02-22T05:27:40;11.77;;;10.77;;
58992;SDS011;44782;0.000;0.000;2023-02-22T05:29:55;12.33;;;11.23;;
58992;SDS011;44782;0.000;0.000;2023-02-22T05:32:11;12.37;;;11.27;;
58992;SDS011;44782;0.000;0.000;2023-02-22T05:34:27;12.70;;;11.50;;
58992;SDS011;44782;0.000;0.000;2023-02-22T05:36:42;12.07;;;11.07;;
58992;SDS011;44782;0.000;0.000;2023-02-22T05:38:58;12.77;;;11.67;;
58992;SDS011;44782;0.000;0.000;2023-02-22T05:41:14;12.90;;;11.77;;
58992;SDS011;44782;0.000;0.000;2023-02-22T05:43:29;13.10;;;12.00;;
58992;SDS011;44782;0.000;0.000;2023-02-22T05:45:45;12.37;;;11.27;;
58992;SDS011;44782;0.000;0.000;2023-02-22T05:48:01;13.10;;;12.00;;
58992;SDS011;44782;0.000;0.000;2023-02-22T05:50:17;11.93;;;10.83;;
58992;SDS011;44782;0.000;0.000;2023-02-22T05:52:34;12.10;;;11.10;;
58992;SDS011;44782;0.000;0.000;2023-02-22T05:54:50;12.60;;;11.50;;
58992;SDS011;44782;0.000;0.000;2023-02-22T05:57:05;11.77;;;10.77;;
58992;SDS011;44782;0.000;0.000;2023-02-22T05:59:21;12.00;;;10.90;;
58992;SDS011;44782;0.000;0.000;2023-02-22T06:01:37;12.77;;;11.60;;
58992;SDS011;44782;0.000;0.000;2023-02-22T06:03:53;12.57;;;11.47;;
58992;SDS011;44782;0.000;0.000;2023-02-22T06:06:08;12.57;;;11.47;;
58992;SDS011;44782;0.000;0.000;2023-02-22T06:08:24;12.00;;;10.90;;
58992;SDS011;44782;0.000;0.000;2023-02-22T06:10:39;11.43;;;10.43;;
58992;SDS011;44782;0.000;0.000;2023-02-22T06:12:56;12.53;;;11.43;;
58992;SDS011;44782;0.000;0.000;2023-02-22T06:15:13;12.40;;;11.30;;
58992;SDS011;44782;0.000;0.000;2023-02-22T06:17:30;12.07;;;11.03;;
58992;SDS011;44782;0.000;0.000;2023-02-22T06:19:45;11.70;;;10.70;;
58992;SDS011;44782;0.000;0.000;2023-02-22T06:22:01;12.00;;;11.00;;
58992;SDS011;44782;0.000;0.000;2023-02-22T06:24:17;11.97;;;10.87;;
58992;SDS011;44782;0.000;0.000;2023-02-22T06:26:33;11.50;;;10.50;;
58992;SDS011;44782;0.000;0.000;2023-02-22T06:28:48;12.03;;;11.03;;
58992;SDS011;44782;0.000;0.000;2023-02-22T06:31:04;11.93;;;10.83;;
58992;SDS011;44782;0.000;0.000;2023-02-22T06:33:20;11.60;;;10.60;;
58992;SDS011;44782;0.000;0.000;2023-02-22T06:35:35;11.80;;;10.80;;
58992;SDS011;44782;0.000;0.000;2023-02-22T06:37:51;12.13;;;11.03;;
58992;SDS011;44782;0.000;0.000;2023-02-22T06:40:07;12.37;;;11.27;;
58992;SDS011;44782;0.000;0.000;2023-02-22T06:42:25;11.53;;;10.53;;
58992;SDS011;44782;0.000;0.000;2023-02-22T06:44:40;12.00;;;10.90;;
58992;SDS011;44782;0.000;0.000;2023-02-22T06:46:56;12.20;;;11.20;;
58992;SDS011;44782;0.000;0.000;2023-02-22T06:49:13;11.87;;;10.87;;
58992;SDS011;44782;0.000;0.000;2023-02-22T06:51:29;12.17;;;11.10;;
58992;SDS011;44782;0.000;0.000;2023-02-22T06:53:49;12.33;;;11.23;;
58992;SDS011;44782;0.000;0.000;2023-02-22T06:56:05;12.23;;;11.20;;
58992;SDS011;44782;0.000;0.000;2023-02-22T06:58:21;12.07;;;10.97;;
58992;SDS011;44782;0.000;0.000;2023-02-22T07:00:36;11.60;;;10.60;;
58992;SDS011;44782;0.000;0.000;2023-02-22T07:02:52;11.67;;;10.67;;
58992;SDS011;44782;0.000;0.000;2023-02-22T07:05:09;11.80;;;10.80;;
58992;SDS011;44782;0.000;0.000;2023-02-22T07:07:26;11.90;;;10.80;;
58992;SDS011;44782;0.000;0.000;2023-02-22T07:09:44;11.47;;;10.47;;
58992;SDS011;44782;0.000;0.000;2023-02-22T07:12:01;12.17;;;11.07;;
58992;SDS011;44782;0.000;0.000;2023-02-22T07:14:17;11.63;;;10.63;;
58992;SDS011;44782;0.000;0.000;2023-02-22T07:16:33;12.90;;;11.80;;
58992;SDS011;44782;0.000;0.000;2023-02-22T07:18:49;12.33;;;11.33;;
58992;SDS011;44782;0.000;0.000;2023-02-22T07:21:05;12.47;;;11.40;;
58992;SDS011;44782;0.000;0.000;2023-02-22T07:23:21;11.87;;;10.87;;
58992;SDS011;44782;0.000;0.000;2023-02-22T07:25:38;11.83;;;10.80;;
58992;SDS011;44782;0.000;0.000;2023-02-22T07:27:53;12.33;;;11.23;;
58992;SDS011;44782;0.000;0.000;2023-02-22T07:30:22;12.27;;;11.27;;
58992;SDS011;44782;0.000;0.000;2023-02-22T07:32:41;11.53;;;10.53;;
58992;SDS011;44782;0.000;0.000;2023-02-22T07:34:57;11.77;;;10.70;;
58992;SDS011;44782;0.000;0.000;2023-02-22T07:37:12;12.10;;;11.07;;
58992;SDS011;44782;0.000;0.000;2023-02-22T07:39:28;11.40;;;10.23;;
58992;SDS011;44782;0.000;0.000;2023-02-22T07:41:44;12.13;;;11.13;;
58992;SDS011;44782;0.000;0.000;2023-02-22T07:43:59;11.73;;;10.73;;
58992;SDS011;44782;0.000;0.000;2023-02-22T07:46:15;11.67;;;10.57;;
58992;SDS011;44782;0.000;0.000;2023-02-22T07:48:31;11.27;;;10.27;;
58992;SDS011;44782;0.000;0.000;2023-02-22T07:50:47;10.97;;;10.07;;
58992;SDS011;44782;0.000;0.000;2023-02-22T07:53:04;11.33;;;10.40;;
58992;SDS011;44782;0.000;0.000;2023-02-22T07:55:22;11.87;;;10.87;;
58992;SDS011;44782;0.000;0.000;2023-02-22T07:57:42;11.33;;;10.33;;
58992;SDS011;44782;0.000;0.000;2023-02-22T08:00:02;12.40;;;11.27;;
58992;SDS011;44782;0.000;0.000;2023-02-22T08:02:18;11.47;;;10.37;;
58992;SDS011;44782;0.000;0.000;2023-02-22T08:04:34;12.13;;;11.03;;
58992;SDS011;44782;0.000;0.000;2023-02-22T08:06:50;11.73;;;10.53;;
58992;SDS011;44782;0.000;0.000;2023-02-22T08:09:05;13.10;;;11.53;;
58992;SDS011;44782;0.000;0.000;2023-02-22T08:11:21;17.50;;;11.50;;
58992;SDS011;44782;0.000;0.000;2023-02-22T08:13:38;14.87;;;11.00;;
58992;SDS011;44782;0.000;0.000;2023-02-22T08:15:54;11.53;;;10.33;;
58992;SDS011;44782;0.000;0.000;2023-02-22T08:18:11;11.87;;;10.77;;
58992;SDS011;44782;0.000;0.000;2023-02-22T08:20:28;12.53;;;11.23;;
58992;SDS011;44782;0.000;0.000;2023-02-22T08:22:45;12.00;;;10.90;;
58992;SDS011;44782;0.000;0.000;2023-02-22T08:25:01;12.97;;;10.83;;
58992;SDS011;44782;0.000;0.000;2023-02-22T08:27:21;12.27;;;10.50;;
58992;SDS011;44782;0.000;0.000;2023-02-22T08:29:39;11.43;;;10.30;;
58992;SDS011;44782;0.000;0.000;2023-02-22T08:31:54;12.07;;;10.97;;
58992;SDS011;44782;0.000;0.000;2023-02-22T08:34:10;12.83;;;10.83;;
58992;SDS011;44782;0.000;0.000;2023-02-22T08:36:25;12.60;;;11.50;;
58992;SDS011;44782;0.000;0.000;2023-02-22T08:38:43;17.70;;;12.00;;
58992;SDS011;44782;0.000;0.000;2023-02-22T08:40:59;15.70;;;11.80;;
58992;SDS011;44782;0.000;0.000;2023-02-22T08:43:15;16.60;;;12.57;;
58992;SDS011;44782;0.000;0.000;2023-02-22T08:45:31;14.57;;;11.83;;
58992;SDS011;44782;0.000;0.000;2023-02-22T08:47:47;12.30;;;11.10;;
58992;SDS011;44782;0.000;0.000;2023-02-22T08:50:03;12.77;;;11.57;;
58992;SDS011;44782;0.000;0.000;2023-02-22T08:52:19;12.30;;;11.10;;
58992;SDS011;44782;0.000;0.000;2023-02-22T08:54:35;11.60;;;10.40;;
58992;SDS011;44782;0.000;0.000;2023-02-22T08:56:51;12.37;;;11.20;;
58992;SDS011;44782;0.000;0.000;2023-02-22T08:59:06;12.00;;;10.90;;
58992;SDS011;44782;0.000;0.000;2023-02-22T09:01:22;12.30;;;11.00;;
58992;SDS011;44782;0.000;0.000;2023-02-22T09:03:38;11.70;;;10.57;;
58992;SDS011;44782;0.000;0.000;2023-02-22T09:05:54;12.20;;;11.00;;
58992;SDS011;44782;0.000;0.000;2023-02-22T09:08:10;11.63;;;10.53;;
58992;SDS011;44782;0.000;0.000;2023-02-22T09:10:27;12.17;;;10.87;;
58992;SDS011;44782;0.000;0.000;2023-02-22T09:12:45;12.53;;;11.37;;
58992;SDS011;44782;0.000;0.000;2023-02-22T09:15:01;12.30;;;11.10;;
58992;SDS011;44782;0.000;0.000;2023-02-22T09:17:16;12.47;;;10.77;;
58992;SDS011;44782;0.000;0.000;2023-02-22T09:19:32;11.27;;;10.07;;
58992;SDS011;44782;0.000;0.000;2023-02-22T09:21:51;12.07;;;10.90;;
58992;SDS011;44782;0.000;0.000;2023-02-22T09:24:08;11.23;;;10.13;;
58992;SDS011;44782;0.000;0.000;2023-02-22T09:26:23;12.43;;;11.13;;
58992;SDS011;44782;0.000;0.000;2023-02-22T09:28:39;12.03;;;10.73;;
58992;SDS011;44782;0.000;0.000;2023-02-22T09:30:55;12.27;;;11.03;;
58992;SDS011;44782;0.000;0.000;2023-02-22T09:33:11;12.93;;;10.40;;
58992;SDS011;44782;0.000;0.000;2023-02-22T09:35:29;11.67;;;10.47;;
58992;SDS011;44782;0.000;0.000;2023-02-22T09:37:44;11.27;;;10.27;;
58992;SDS011;44782;0.000;0.000;2023-02-22T09:40:00;12.40;;;11.07;;
58992;SDS011;44782;0.000;0.000;2023-02-22T09:42:21;11.53;;;10.40;;
58992;SDS011;44782;0.000;0.000;2023-02-22T09:44:49;11.10;;;10.00;;
58992;SDS011;44782;0.000;0.000;2023-02-22T09:47:13;11.70;;;10.60;;
58992;SDS011;44782;0.000;0.000;2023-02-22T09:52:20;11.57;;;10.47;;
58992;SDS011;44782;0.000;0.000;2023-02-22T09:55:05;11.23;;;10.17;;
58992;SDS011;44782;0.000;0.000;2023-02-22T09:57:40;10.73;;;9.80;;
58992;SDS011;44782;0.000;0.000;2023-02-22T10:00:03;11.13;;;10.13;;
58992;SDS011;44782;0.000;0.000;2023-02-22T10:02:28;11.70;;;10.57;;
58992;SDS011;44782;0.000;0.000;2023-02-22T10:04:51;11.47;;;10.37;;
58992;SDS011;44782;0.000;0.000;2023-02-22T10:09:35;10.87;;;9.77;;
58992;SDS011;44782;0.000;0.000;2023-02-22T10:11:57;11.00;;;10.00;;
58992;SDS011;44782;0.000;0.000;2023-02-22T10:26:53;10.33;;;9.33;;
58992;SDS011;44782;0.000;0.000;2023-02-22T10:31:49;10.50;;;9.60;;
58992;SDS011;44782;0.000;0.000;2023-02-22T10:34:13;10.53;;;9.53;;
58992;SDS011;44782;0.000;0.000;2023-02-22T10:36:30;10.73;;;9.83;;
58992;SDS011;44782;0.000;0.000;2023-02-22T10:38:55;9.67;;;8.77;;
58992;SDS011;44782;0.000;0.000;2023-02-22T10:41:19;10.30;;;9.40;;
58992;SDS011;44782;0.000;0.000;2023-02-22T10:43:59;9.60;;;8.70;;
58992;SDS011;44782;0.000;0.000;2023-02-22T10:46:17;10.47;;;9.47;;
58992;SDS011;44782;0.000;0.000;2023-02-22T10:48:35;10.47;;;9.47;;
58992;SDS011;44782;0.000;0.000;2023-02-22T10:50:56;10.37;;;9.43;;
58992;SDS011;44782;0.000;0.000;2023-02-22T10:53:15;9.93;;;9.00;;
58992;SDS011;44782;0.000;0.000;2023-02-22T10:55:31;10.10;;;9.20;;
58992;SDS011;44782;0.000;0.000;2023-02-22T10:57:48;9.60;;;8.80;;
58992;SDS011;44782;0.000;0.000;2023-02-22T11:00:13;10.40;;;9.50;;
58992;SDS011;44782;0.000;0.000;2023-02-22T11:02:34;9.73;;;8.83;;
58992;SDS011;44782;0.000;0.000;2023-02-22T11:04:54;10.43;;;9.53;;
58992;SDS011;44782;0.000;0.000;2023-02-22T11:07:19;9.97;;;9.00;;
58992;SDS011;44782;0.000;0.000;2023-02-22T11:09:44;9.67;;;8.77;;
58992;SDS011;44782;0.000;0.000;2023-02-22T11:12:15;10.20;;;9.30;;
58992;SDS011;44782;0.000;0.000;2023-02-22T11:14:33;9.20;;;8.40;;
58992;SDS011;44782;0.000;0.000;2023-02-22T11:16:50;10.10;;;9.20;;
58992;SDS011;44782;0.000;0.000;2023-02-22T11:19:14;9.97;;;9.17;;
58992;SDS011;44782;0.000;0.000;2023-02-22T11:21:41;9.47;;;8.67;;
58992;SDS011;44782;0.000;0.000;2023-02-22T11:24:05;9.37;;;8.57;;
58992;SDS011;44782;0.000;0.000;2023-02-22T11:26:23;10.17;;;9.27;;
58992;SDS011;44782;0.000;0.000;2023-02-22T11:28:41;9.70;;;8.80;;
58992;SDS011;44782;0.000;0.000;2023-02-22T11:31:17;10.00;;;9.10;;
58992;SDS011;44782;0.000;0.000;2023-02-22T11:33:35;9.20;;;8.40;;
58992;SDS011;44782;0.000;0.000;2023-02-22T11:35:56;9.47;;;8.67;;
58992;SDS011;44782;0.000;0.000;2023-02-22T11:38:16;10.27;;;9.37;;
58992;SDS011;44782;0.000;0.000;2023-02-22T11:41:03;9.80;;;8.90;;
58992;SDS011;44782;0.000;0.000;2023-02-22T11:43:30;9.53;;;8.63;;
58992;SDS011;44782;0.000;0.000;2023-02-22T11:45:57;9.17;;;8.37;;
58992;SDS011;44782;0.000;0.000;2023-02-22T11:48:18;9.60;;;8.67;;
58992;SDS011;44782;0.000;0.000;2023-02-22T11:58:59;10.13;;;9.13;;
58992;SDS011;44782;0.000;0.000;2023-02-22T12:01:27;9.20;;;8.40;;
58992;SDS011;44782;0.000;0.000;2023-02-22T12:11:41;8.93;;;8.13;;
58992;SDS011;44782;0.000;0.000;2023-02-22T12:21:43;8.77;;;8.03;;
58992;SDS011;44782;0.000;0.000;2023-02-22T12:24:09;9.03;;;8.23;;
58992;SDS011;44782;0.000;0.000;2023-02-22T12:26:34;9.13;;;8.33;;
58992;SDS011;44782;0.000;0.000;2023-02-22T12:29:00;8.90;;;8.20;;
58992;SDS011;44782;0.000;0.000;2023-02-22T12:34:10;8.97;;;8.17;;
58992;SDS011;44782;0.000;0.000;2023-02-22T12:36:32;9.20;;;8.40;;
58992;SDS011;44782;0.000;0.000;2023-02-22T12:39:02;8.70;;;7.80;;
58992;SDS011;44782;0.000;0.000;2023-02-22T12:41:44;8.37;;;7.67;;
58992;SDS011;44782;0.000;0.000;2023-02-22T12:44:09;8.60;;;7.80;;
58992;SDS011;44782;0.000;0.000;2023-02-22T12:46:47;8.00;;;7.30;;
58992;SDS011;44782;0.000;0.000;2023-02-22T12:49:22;8.53;;;7.73;;
58992;SDS011;44782;0.000;0.000;2023-02-22T12:54:19;8.67;;;7.87;;
58992;SDS011;44782;0.000;0.000;2023-02-22T12:56:44;8.37;;;7.67;;
58992;SDS011;44782;0.000;0.000;2023-02-22T13:01:40;8.20;;;7.50;;
58992;SDS011;44782;0.000;0.000;2023-02-22T13:03:59;8.97;;;8.17;;
58992;SDS011;44782;0.000;0.000;2023-02-22T13:06:35;8.33;;;7.63;;
58992;SDS011;44782;0.000;0.000;2023-02-22T13:11:54;8.03;;;7.33;;
58992;SDS011;44782;0.000;0.000;2023-02-22T13:15:20;7.70;;;7.00;;
58992;SDS011;44782;0.000;0.000;2023-02-22T13:33:40;8.37;;;7.67;;
58992;SDS011;44782;0.000;0.000;2023-02-22T13:44:15;7.73;;;7.13;;
58992;SDS011;44782;0.000;0.000;2023-02-22T13:51:49;8.20;;;7.53;;
58992;SDS011;44782;0.000;0.000;2023-02-22T13:54:17;7.73;;;7.13;;
58992;SDS011;44782;0.000;0.000;2023-02-22T13:56:40;8.03;;;7.33;;
58992;SDS011;44782;0.000;0.000;2023-02-22T13:58:58;8.30;;;7.63;;
58992;SDS011;44782;0.000;0.000;2023-02-22T14:01:35;7.97;;;7.30;;
58992;SDS011;44782;0.000;0.000;2023-02-22T14:03:52;7.80;;;7.10;;
58992;SDS011;44782;0.000;0.000;2023-02-22T14:06:37;8.10;;;7.40;;
58992;SDS011;44782;0.000;0.000;2023-02-22T14:08:55;8.00;;;7.30;;
58992;SDS011;44782;0.000;0.000;2023-02-22T14:13:27;7.80;;;7.10;;
58992;SDS011;44782;0.000;0.000;2023-02-22T14:18:15;7.70;;;7.03;;
58992;SDS011;44782;0.000;0.000;2023-02-22T14:20:32;8.17;;;7.40;;
58992;SDS011;44782;0.000;0.000;2023-02-22T14:22:50;8.30;;;7.60;;
58992;SDS011;44782;0.000;0.000;2023-02-22T14:25:27;8.13;;;7.43;;
58992;SDS011;44782;0.000;0.000;2023-02-22T14:27:46;7.73;;;7.13;;
58992;SDS011;44782;0.000;0.000;2023-02-22T14:30:02;8.03;;;7.33;;
58992;SDS011;44782;0.000;0.000;2023-02-22T14:32:19;8.13;;;7.43;;
58992;SDS011;44782;0.000;0.000;2023-02-22T14:39:48;7.80;;;7.10;;
58992;SDS011;44782;0.000;0.000;2023-02-22T14:42:09;8.00;;;7.30;;
58992;SDS011;44782;0.000;0.000;2023-02-22T14:47:06;8.40;;;7.70;;
58992;SDS011;44782;0.000;0.000;2023-02-22T14:49:24;7.80;;;7.20;;
58992;SDS011;44782;0.000;0.000;2023-02-22T14:51:53;7.63;;;7.03;;
58992;SDS011;44782;0.000;0.000;2023-02-22T14:57:08;7.37;;;6.77;;
58992;SDS011;44782;0.000;0.000;2023-02-22T14:59:35;8.07;;;7.37;;
58992;SDS011;44782;0.000;0.000;2023-02-22T15:02:10;7.57;;;6.93;;
58992;SDS011;44782;0.000;0.000;2023-02-22T15:04:28;8.00;;;7.30;;
58992;SDS011;44782;0.000;0.000;2023-02-22T15:06:45;7.30;;;6.70;;
58992;SDS011;44782;0.000;0.000;2023-02-22T15:09:21;8.20;;;7.40;;
58992;SDS011;44782;0.000;0.000;2023-02-22T15:11:40;7.37;;;6.73;;
58992;SDS011;44782;0.000;0.000;2023-02-22T15:14:00;7.13;;;6.53;;
58992;SDS011;44782;0.000;0.000;2023-02-22T15:16:16;7.37;;;6.77;;
58992;SDS011;44782;0.000;0.000;2023-02-22T15:20:56;7.70;;;7.00;;
58992;SDS011;44782;0.000;0.000;2023-02-22T15:23:17;7.30;;;6.70;;
58992;SDS011;44782;0.000;0.000;2023-02-22T15:25:33;8.23;;;7.50;;
58992;SDS011;44782;0.000;0.000;2023-02-22T15:27:51;7.90;;;7.20;;
58992;SDS011;44782;0.000;0.000;2023-02-22T15:30:29;7.60;;;7.00;;
58992;SDS011;44782;0.000;0.000;2023-02-22T15:32:46;7.93;;;7.23;;
58992;SDS011;44782;0.000;0.000;2023-02-22T15:35:15;8.07;;;7.37;;
58992;SDS011;44782;0.000;0.000;2023-02-22T15:37:42;7.93;;;7.30;;
58992;SDS011;44782;0.000;0.000;2023-02-22T15:40:06;7.60;;;7.00;;
58992;SDS011;44782;0.000;0.000;2023-02-22T15:42:28;7.33;;;6.73;;
58992;SDS011;44782;0.000;0.000;2023-02-22T15:44:44;7.73;;;7.03;;
58992;SDS011;44782;0.000;0.000;2023-02-22T15:47:02;7.70;;;7.03;;
58992;SDS011;44782;0.000;0.000;2023-02-22T15:49:19;7.70;;;7.00;;
58992;SDS011;44782;0.000;0.000;2023-02-22T15:51:37;7.47;;;6.77;;
58992;SDS011;44782;0.000;0.000;2023-02-22T15:53:57;8.10;;;7.40;;
58992;SDS011;44782;0.000;0.000;2023-02-22T15:56:16;7.93;;;7.13;;
58992;SDS011;44782;0.000;0.000;2023-02-22T15:58:38;8.07;;;7.37;;
58992;SDS011;44782;0.000;0.000;2023-02-22T16:01:00;8.43;;;7.63;;
58992;SDS011;44782;0.000;0.000;2023-02-22T16:03:19;7.67;;;7.00;;
58992;SDS011;44782;0.000;0.000;2023-02-22T16:05:43;7.97;;;7.27;;
58992;SDS011;44782;0.000;0.000;2023-02-22T16:08:09;7.83;;;7.03;;
58992;SDS011;44782;0.000;0.000;2023-02-22T16:11:02;7.20;;;6.60;;
58992;SDS011;44782;0.000;0.000;2023-02-22T16:13:28;7.73;;;7.13;;
58992;SDS011;44782;0.000;0.000;2023-02-22T16:15:56;7.50;;;6.80;;